sensor_id;sensor_type;location;lat;lon;timestamp;P1;durP1;ratioP1;P2;durP2;ratioP2
53915;SDS011;39827;49.652;18.770;2023-01-08T00:00:46;80.15;;;75.07;;
53915;SDS011;39827;49.652;18.770;2023-01-08T00:03:11;68.65;;;64.15;;
53915;SDS011;39827;49.652;18.770;2023-01-08T00:05:37;75.22;;;69.82;;
53915;SDS011;39827;49.652;18.770;2023-01-08T00:08:02;70.53;;;66.03;;
53915;SDS011;39827;49.652;18.770;2023-01-08T00:10:28;78.05;;;72.85;;
53915;SDS011;39827;49.652;18.770;2023-01-08T00:12:54;77.47;;;72.18;;
53915;SDS011;39827;49.652;18.770;2023-01-08T00:15:20;83.65;;;78.22;;
53915;SDS011;39827;49.652;18.770;2023-01-08T00:17:46;75.55;;;70.40;;
53915;SDS011;39827;49.652;18.770;2023-01-08T00:20:11;64.90;;;60.55;;
53915;SDS011;39827;49.652;18.770;2023-01-08T00:22:36;92.50;;;86.25;;
53915;SDS011;39827;49.652;18.770;2023-01-08T00:25:02;66.35;;;61.90;;
53915;SDS011;39827;49.652;18.770;2023-01-08T00:27:27;63.85;;;59.50;;
53915;SDS011;39827;49.652;18.770;2023-01-08T00:29:53;94.68;;;87.50;;
53915;SDS011;39827;49.652;18.770;2023-01-08T00:32:18;64.20;;;59.88;;
53915;SDS011;39827;49.652;18.770;2023-01-08T00:34:44;58.65;;;54.75;;
53915;SDS011;39827;49.652;18.770;2023-01-08T00:37:09;57.80;;;53.50;;
53915;SDS011;39827;49.652;18.770;2023-01-08T00:39:34;66.68;;;61.72;;
53915;SDS011;39827;49.652;18.770;2023-01-08T00:42:00;65.72;;;61.35;;
53915;SDS011;39827;49.652;18.770;2023-01-08T00:44:25;61.60;;;57.53;;
53915;SDS011;39827;49.652;18.770;2023-01-08T00:46:51;56.00;;;52.13;;
53915;SDS011;39827;49.652;18.770;2023-01-08T00:49:16;70.50;;;65.65;;
53915;SDS011;39827;49.652;18.770;2023-01-08T00:51:41;65.47;;;61.03;;
53915;SDS011;39827;49.652;18.770;2023-01-08T00:54:08;62.67;;;58.50;;
53915;SDS011;39827;49.652;18.770;2023-01-08T00:56:34;69.90;;;65.15;;
53915;SDS011;39827;49.652;18.770;2023-01-08T00:59:00;61.15;;;57.08;;
53915;SDS011;39827;49.652;18.770;2023-01-08T01:01:25;69.93;;;65.10;;
53915;SDS011;39827;49.652;18.770;2023-01-08T01:03:51;74.82;;;69.57;;
53915;SDS011;39827;49.652;18.770;2023-01-08T01:06:16;66.22;;;61.80;;
53915;SDS011;39827;49.652;18.770;2023-01-08T01:08:42;67.45;;;62.90;;
53915;SDS011;39827;49.652;18.770;2023-01-08T01:11:09;63.15;;;58.97;;
53915;SDS011;39827;49.652;18.770;2023-01-08T01:16:06;86.85;;;81.43;;
53915;SDS011;39827;49.652;18.770;2023-01-08T01:18:32;96.82;;;90.50;;
53915;SDS011;39827;49.652;18.770;2023-01-08T01:20:58;76.03;;;71.03;;
53915;SDS011;39827;49.652;18.770;2023-01-08T01:23:23;71.32;;;66.13;;
53915;SDS011;39827;49.652;18.770;2023-01-08T01:25:49;81.05;;;75.90;;
53915;SDS011;39827;49.652;18.770;2023-01-08T01:28:14;80.22;;;74.88;;
53915;SDS011;39827;49.652;18.770;2023-01-08T01:30:40;76.85;;;71.80;;
53915;SDS011;39827;49.652;18.770;2023-01-08T01:33:05;75.47;;;70.47;;
53915;SDS011;39827;49.652;18.770;2023-01-08T01:35:31;73.10;;;68.30;;
53915;SDS011;39827;49.652;18.770;2023-01-08T01:37:56;83.35;;;77.78;;
53915;SDS011;39827;49.652;18.770;2023-01-08T01:40:22;76.80;;;71.60;;
53915;SDS011;39827;49.652;18.770;2023-01-08T01:42:47;91.88;;;85.50;;
53915;SDS011;39827;49.652;18.770;2023-01-08T01:45:14;91.00;;;84.60;;
53915;SDS011;39827;49.652;18.770;2023-01-08T01:47:42;75.55;;;70.53;;
53915;SDS011;39827;49.652;18.770;2023-01-08T01:52:46;85.97;;;80.25;;
53915;SDS011;39827;49.652;18.770;2023-01-08T01:55:16;87.22;;;81.78;;
53915;SDS011;39827;49.652;18.770;2023-01-08T01:57:43;84.35;;;78.88;;
53915;SDS011;39827;49.652;18.770;2023-01-08T02:00:14;72.40;;;67.28;;
53915;SDS011;39827;49.652;18.770;2023-01-08T02:02:40;79.97;;;74.53;;
53915;SDS011;39827;49.652;18.770;2023-01-08T02:05:06;82.32;;;76.63;;
53915;SDS011;39827;49.652;18.770;2023-01-08T02:07:39;79.75;;;74.53;;
53915;SDS011;39827;49.652;18.770;2023-01-08T02:10:14;95.80;;;89.03;;
53915;SDS011;39827;49.652;18.770;2023-01-08T02:12:46;107.40;;;99.70;;
53915;SDS011;39827;49.652;18.770;2023-01-08T02:17:54;89.43;;;83.13;;
53915;SDS011;39827;49.652;18.770;2023-01-08T02:20:31;79.85;;;74.43;;
53915;SDS011;39827;49.652;18.770;2023-01-08T02:26:25;76.72;;;71.55;;
53915;SDS011;39827;49.652;18.770;2023-01-08T02:29:05;81.47;;;76.18;;
53915;SDS011;39827;49.652;18.770;2023-01-08T02:31:33;79.40;;;74.00;;
53915;SDS011;39827;49.652;18.770;2023-01-08T02:34:00;84.55;;;78.85;;
53915;SDS011;39827;49.652;18.770;2023-01-08T02:36:36;76.82;;;71.78;;
53915;SDS011;39827;49.652;18.770;2023-01-08T02:44:50;87.32;;;81.65;;
53915;SDS011;39827;49.652;18.770;2023-01-08T02:47:45;84.47;;;78.60;;
53915;SDS011;39827;49.652;18.770;2023-01-08T02:50:52;78.10;;;72.70;;
53915;SDS011;39827;49.652;18.770;2023-01-08T02:53:30;77.72;;;72.43;;
53915;SDS011;39827;49.652;18.770;2023-01-08T02:56:06;74.47;;;69.18;;
53915;SDS011;39827;49.652;18.770;2023-01-08T02:58:37;78.40;;;73.18;;
53915;SDS011;39827;49.652;18.770;2023-01-08T03:01:05;79.97;;;74.45;;
53915;SDS011;39827;49.652;18.770;2023-01-08T03:03:33;96.13;;;88.85;;
53915;SDS011;39827;49.652;18.770;2023-01-08T03:06:02;67.72;;;63.15;;
53915;SDS011;39827;49.652;18.770;2023-01-08T03:08:30;70.68;;;65.70;;
53915;SDS011;39827;49.652;18.770;2023-01-08T03:11:05;69.03;;;64.32;;
53915;SDS011;39827;49.652;18.770;2023-01-08T03:16:29;80.00;;;74.85;;
53915;SDS011;39827;49.652;18.770;2023-01-08T03:19:09;82.22;;;76.28;;
53915;SDS011;39827;49.652;18.770;2023-01-08T03:21:41;80.35;;;74.50;;
53915;SDS011;39827;49.652;18.770;2023-01-08T03:24:10;108.13;;;100.22;;
53915;SDS011;39827;49.652;18.770;2023-01-08T03:26:37;88.65;;;82.15;;
53915;SDS011;39827;49.652;18.770;2023-01-08T03:29:04;101.20;;;93.95;;
53915;SDS011;39827;49.652;18.770;2023-01-08T03:31:34;88.32;;;82.03;;
53915;SDS011;39827;49.652;18.770;2023-01-08T03:34:00;76.32;;;70.97;;
53915;SDS011;39827;49.652;18.770;2023-01-08T03:36:27;78.13;;;72.72;;
53915;SDS011;39827;49.652;18.770;2023-01-08T03:39:09;87.32;;;80.97;;
53915;SDS011;39827;49.652;18.770;2023-01-08T03:41:40;109.40;;;101.30;;
53915;SDS011;39827;49.652;18.770;2023-01-08T03:44:06;81.97;;;75.93;;
53915;SDS011;39827;49.652;18.770;2023-01-08T03:46:32;85.72;;;79.20;;
53915;SDS011;39827;49.652;18.770;2023-01-08T03:49:03;91.72;;;85.00;;
53915;SDS011;39827;49.652;18.770;2023-01-08T03:51:44;107.75;;;100.38;;
53915;SDS011;39827;49.652;18.770;2023-01-08T03:54:12;72.25;;;67.18;;
53915;SDS011;39827;49.652;18.770;2023-01-08T03:56:42;81.40;;;75.55;;
53915;SDS011;39827;49.652;18.770;2023-01-08T03:59:09;84.25;;;77.65;;
53915;SDS011;39827;49.652;18.770;2023-01-08T04:01:35;115.95;;;107.80;;
53915;SDS011;39827;49.652;18.770;2023-01-08T04:04:00;82.18;;;76.35;;
53915;SDS011;39827;49.652;18.770;2023-01-08T04:06:26;70.28;;;65.45;;
53915;SDS011;39827;49.652;18.770;2023-01-08T04:08:51;71.60;;;66.82;;
53915;SDS011;39827;49.652;18.770;2023-01-08T04:11:17;69.50;;;64.72;;
53915;SDS011;39827;49.652;18.770;2023-01-08T04:13:44;77.22;;;71.88;;
53915;SDS011;39827;49.652;18.770;2023-01-08T04:16:09;77.90;;;72.28;;
53915;SDS011;39827;49.652;18.770;2023-01-08T04:18:35;79.80;;;74.13;;
53915;SDS011;39827;49.652;18.770;2023-01-08T04:21:00;81.00;;;75.55;;
53915;SDS011;39827;49.652;18.770;2023-01-08T04:23:25;84.18;;;78.57;;
53915;SDS011;39827;49.652;18.770;2023-01-08T04:25:51;148.55;;;135.90;;
53915;SDS011;39827;49.652;18.770;2023-01-08T04:28:17;81.05;;;75.70;;
53915;SDS011;39827;49.652;18.770;2023-01-08T04:30:43;121.13;;;111.97;;
53915;SDS011;39827;49.652;18.770;2023-01-08T04:33:09;90.15;;;84.25;;
53915;SDS011;39827;49.652;18.770;2023-01-08T04:35:34;77.38;;;72.30;;
53915;SDS011;39827;49.652;18.770;2023-01-08T04:38:00;93.75;;;87.30;;
53915;SDS011;39827;49.652;18.770;2023-01-08T04:40:25;86.40;;;80.65;;
53915;SDS011;39827;49.652;18.770;2023-01-08T04:42:51;89.00;;;82.72;;
53915;SDS011;39827;49.652;18.770;2023-01-08T04:45:16;94.82;;;88.25;;
53915;SDS011;39827;49.652;18.770;2023-01-08T04:47:42;98.00;;;90.18;;
53915;SDS011;39827;49.652;18.770;2023-01-08T04:50:07;66.40;;;61.83;;
53915;SDS011;39827;49.652;18.770;2023-01-08T04:52:33;110.63;;;102.68;;
53915;SDS011;39827;49.652;18.770;2023-01-08T04:54:58;76.47;;;71.50;;
53915;SDS011;39827;49.652;18.770;2023-01-08T04:57:24;101.72;;;94.10;;
53915;SDS011;39827;49.652;18.770;2023-01-08T04:59:49;73.85;;;68.75;;
53915;SDS011;39827;49.652;18.770;2023-01-08T05:02:15;94.65;;;88.10;;
53915;SDS011;39827;49.652;18.770;2023-01-08T05:04:40;80.82;;;75.30;;
53915;SDS011;39827;49.652;18.770;2023-01-08T05:07:06;81.10;;;75.68;;
53915;SDS011;39827;49.652;18.770;2023-01-08T05:09:32;75.75;;;70.55;;
53915;SDS011;39827;49.652;18.770;2023-01-08T05:11:57;87.22;;;81.05;;
53915;SDS011;39827;49.652;18.770;2023-01-08T05:14:23;75.32;;;70.38;;
53915;SDS011;39827;49.652;18.770;2023-01-08T05:16:48;72.60;;;67.60;;
53915;SDS011;39827;49.652;18.770;2023-01-08T05:19:14;74.13;;;68.80;;
53915;SDS011;39827;49.652;18.770;2023-01-08T05:21:39;75.03;;;69.95;;
53915;SDS011;39827;49.652;18.770;2023-01-08T05:24:04;74.30;;;69.22;;
53915;SDS011;39827;49.652;18.770;2023-01-08T05:26:30;96.22;;;89.50;;
53915;SDS011;39827;49.652;18.770;2023-01-08T05:28:56;82.40;;;76.90;;
53915;SDS011;39827;49.652;18.770;2023-01-08T05:31:22;78.75;;;73.28;;
53915;SDS011;39827;49.652;18.770;2023-01-08T05:33:47;86.13;;;80.25;;
53915;SDS011;39827;49.652;18.770;2023-01-08T05:36:12;108.88;;;100.32;;
53915;SDS011;39827;49.652;18.770;2023-01-08T05:38:38;80.50;;;74.88;;
53915;SDS011;39827;49.652;18.770;2023-01-08T05:41:05;85.72;;;80.15;;
53915;SDS011;39827;49.652;18.770;2023-01-08T05:43:31;82.32;;;76.97;;
53915;SDS011;39827;49.652;18.770;2023-01-08T05:45:57;83.95;;;78.32;;
53915;SDS011;39827;49.652;18.770;2023-01-08T05:48:24;86.43;;;80.63;;
53915;SDS011;39827;49.652;18.770;2023-01-08T05:50:50;86.28;;;80.30;;
53915;SDS011;39827;49.652;18.770;2023-01-08T05:53:15;86.10;;;79.97;;
53915;SDS011;39827;49.652;18.770;2023-01-08T05:55:41;82.70;;;76.75;;
53915;SDS011;39827;49.652;18.770;2023-01-08T05:58:06;97.03;;;89.97;;
53915;SDS011;39827;49.652;18.770;2023-01-08T06:00:32;105.15;;;97.60;;
53915;SDS011;39827;49.652;18.770;2023-01-08T06:02:58;135.13;;;125.28;;
53915;SDS011;39827;49.652;18.770;2023-01-08T06:05:23;87.00;;;80.80;;
53915;SDS011;39827;49.652;18.770;2023-01-08T06:07:49;96.68;;;90.05;;
53915;SDS011;39827;49.652;18.770;2023-01-08T06:10:14;92.10;;;85.28;;
53915;SDS011;39827;49.652;18.770;2023-01-08T06:12:40;81.78;;;75.90;;
53915;SDS011;39827;49.652;18.770;2023-01-08T06:15:06;105.43;;;97.82;;
53915;SDS011;39827;49.652;18.770;2023-01-08T06:17:33;130.98;;;121.30;;
53915;SDS011;39827;49.652;18.770;2023-01-08T06:19:59;110.43;;;102.15;;
53915;SDS011;39827;49.652;18.770;2023-01-08T06:22:24;89.25;;;82.75;;
53915;SDS011;39827;49.652;18.770;2023-01-08T06:24:50;77.13;;;71.63;;
53915;SDS011;39827;49.652;18.770;2023-01-08T06:27:15;122.20;;;113.32;;
53915;SDS011;39827;49.652;18.770;2023-01-08T06:29:41;141.40;;;130.80;;
53915;SDS011;39827;49.652;18.770;2023-01-08T06:32:06;129.32;;;119.63;;
53915;SDS011;39827;49.652;18.770;2023-01-08T06:34:32;98.18;;;90.88;;
53915;SDS011;39827;49.652;18.770;2023-01-08T06:36:57;112.97;;;104.47;;
53915;SDS011;39827;49.652;18.770;2023-01-08T06:39:22;83.85;;;77.50;;
53915;SDS011;39827;49.652;18.770;2023-01-08T06:41:48;138.38;;;127.00;;
53915;SDS011;39827;49.652;18.770;2023-01-08T06:44:13;115.13;;;106.25;;
53915;SDS011;39827;49.652;18.770;2023-01-08T06:46:39;93.30;;;86.30;;
53915;SDS011;39827;49.652;18.770;2023-01-08T06:49:07;148.70;;;137.77;;
53915;SDS011;39827;49.652;18.770;2023-01-08T06:51:33;137.45;;;127.35;;
53915;SDS011;39827;49.652;18.770;2023-01-08T06:53:59;101.88;;;94.32;;
53915;SDS011;39827;49.652;18.770;2023-01-08T06:56:25;133.32;;;123.43;;
53915;SDS011;39827;49.652;18.770;2023-01-08T06:58:51;136.00;;;125.15;;
53915;SDS011;39827;49.652;18.770;2023-01-08T07:01:16;116.07;;;107.15;;
53915;SDS011;39827;49.652;18.770;2023-01-08T07:03:42;166.30;;;153.80;;
53915;SDS011;39827;49.652;18.770;2023-01-08T07:06:12;142.60;;;131.88;;
53915;SDS011;39827;49.652;18.770;2023-01-08T07:08:43;120.72;;;111.53;;
53915;SDS011;39827;49.652;18.770;2023-01-08T07:11:09;137.73;;;127.50;;
53915;SDS011;39827;49.652;18.770;2023-01-08T07:13:34;160.55;;;148.68;;
53915;SDS011;39827;49.652;18.770;2023-01-08T07:16:06;116.28;;;107.50;;
53915;SDS011;39827;49.652;18.770;2023-01-08T07:18:33;155.05;;;143.45;;
53915;SDS011;39827;49.652;18.770;2023-01-08T07:21:00;139.02;;;128.75;;
53915;SDS011;39827;49.652;18.770;2023-01-08T07:23:26;143.38;;;132.75;;
53915;SDS011;39827;49.652;18.770;2023-01-08T07:25:52;132.20;;;122.20;;
53915;SDS011;39827;49.652;18.770;2023-01-08T07:28:17;152.15;;;140.90;;
53915;SDS011;39827;49.652;18.770;2023-01-08T07:30:43;199.82;;;185.35;;
53915;SDS011;39827;49.652;18.770;2023-01-08T07:33:08;161.57;;;149.73;;
53915;SDS011;39827;49.652;18.770;2023-01-08T07:35:34;136.80;;;126.88;;
53915;SDS011;39827;49.652;18.770;2023-01-08T07:37:59;125.70;;;116.75;;
53915;SDS011;39827;49.652;18.770;2023-01-08T07:40:25;133.93;;;124.60;;
53915;SDS011;39827;49.652;18.770;2023-01-08T07:43:01;161.23;;;150.43;;
53915;SDS011;39827;49.652;18.770;2023-01-08T07:45:28;142.77;;;133.25;;
53915;SDS011;39827;49.652;18.770;2023-01-08T07:47:57;153.80;;;143.57;;
53915;SDS011;39827;49.652;18.770;2023-01-08T07:50:23;144.00;;;134.50;;
53915;SDS011;39827;49.652;18.770;2023-01-08T07:52:48;137.75;;;128.73;;
53915;SDS011;39827;49.652;18.770;2023-01-08T07:55:14;133.40;;;124.60;;
53915;SDS011;39827;49.652;18.770;2023-01-08T07:57:39;107.47;;;100.03;;
53915;SDS011;39827;49.652;18.770;2023-01-08T08:00:05;108.20;;;101.00;;
53915;SDS011;39827;49.652;18.770;2023-01-08T08:02:31;108.35;;;100.85;;
53915;SDS011;39827;49.652;18.770;2023-01-08T08:04:57;106.85;;;99.50;;
53915;SDS011;39827;49.652;18.770;2023-01-08T08:07:23;136.13;;;127.05;;
53915;SDS011;39827;49.652;18.770;2023-01-08T08:09:48;114.05;;;106.63;;
53915;SDS011;39827;49.652;18.770;2023-01-08T08:12:13;138.20;;;129.32;;
53915;SDS011;39827;49.652;18.770;2023-01-08T08:14:39;110.75;;;103.68;;
53915;SDS011;39827;49.652;18.770;2023-01-08T08:17:05;92.93;;;86.88;;
53915;SDS011;39827;49.652;18.770;2023-01-08T08:19:30;116.30;;;108.57;;
53915;SDS011;39827;49.652;18.770;2023-01-08T08:21:55;92.00;;;85.97;;
53915;SDS011;39827;49.652;18.770;2023-01-08T08:24:21;61.90;;;57.33;;
53915;SDS011;39827;49.652;18.770;2023-01-08T08:26:46;63.20;;;58.50;;
53915;SDS011;39827;49.652;18.770;2023-01-08T08:29:12;78.15;;;72.68;;
53915;SDS011;39827;49.652;18.770;2023-01-08T08:31:37;64.85;;;60.40;;
53915;SDS011;39827;49.652;18.770;2023-01-08T08:34:02;78.75;;;73.20;;
53915;SDS011;39827;49.652;18.770;2023-01-08T08:36:28;75.38;;;70.03;;
53915;SDS011;39827;49.652;18.770;2023-01-08T08:38:54;57.30;;;53.08;;
53915;SDS011;39827;49.652;18.770;2023-01-08T08:41:20;73.60;;;68.63;;
53915;SDS011;39827;49.652;18.770;2023-01-08T08:43:45;60.58;;;56.08;;
53915;SDS011;39827;49.652;18.770;2023-01-08T08:46:11;67.22;;;62.28;;
53915;SDS011;39827;49.652;18.770;2023-01-08T08:48:36;48.17;;;44.78;;
53915;SDS011;39827;49.652;18.770;2023-01-08T08:51:02;61.30;;;56.97;;
53915;SDS011;39827;49.652;18.770;2023-01-08T08:53:28;45.67;;;42.28;;
53915;SDS011;39827;49.652;18.770;2023-01-08T08:55:53;55.13;;;50.83;;
53915;SDS011;39827;49.652;18.770;2023-01-08T08:58:22;58.13;;;54.08;;
53915;SDS011;39827;49.652;18.770;2023-01-08T09:00:47;89.18;;;83.10;;
53915;SDS011;39827;49.652;18.770;2023-01-08T09:03:13;85.70;;;79.50;;
53915;SDS011;39827;49.652;18.770;2023-01-08T09:05:39;67.18;;;62.38;;
53915;SDS011;39827;49.652;18.770;2023-01-08T09:08:06;61.75;;;57.10;;
53915;SDS011;39827;49.652;18.770;2023-01-08T09:10:32;63.42;;;58.38;;
53915;SDS011;39827;49.652;18.770;2023-01-08T09:12:57;56.00;;;51.80;;
53915;SDS011;39827;49.652;18.770;2023-01-08T09:15:23;64.60;;;59.92;;
53915;SDS011;39827;49.652;18.770;2023-01-08T09:17:52;95.95;;;89.40;;
53915;SDS011;39827;49.652;18.770;2023-01-08T09:20:19;79.22;;;73.82;;
53915;SDS011;39827;49.652;18.770;2023-01-08T09:22:45;68.68;;;63.85;;
53915;SDS011;39827;49.652;18.770;2023-01-08T09:25:10;57.40;;;52.60;;
53915;SDS011;39827;49.652;18.770;2023-01-08T09:27:36;75.45;;;70.20;;
53915;SDS011;39827;49.652;18.770;2023-01-08T09:30:01;79.82;;;74.25;;
53915;SDS011;39827;49.652;18.770;2023-01-08T09:32:27;78.82;;;73.32;;
53915;SDS011;39827;49.652;18.770;2023-01-08T09:34:52;94.60;;;88.43;;
53915;SDS011;39827;49.652;18.770;2023-01-08T09:37:18;123.75;;;115.65;;
53915;SDS011;39827;49.652;18.770;2023-01-08T09:39:43;109.90;;;102.68;;
53915;SDS011;39827;49.652;18.770;2023-01-08T09:42:09;135.57;;;126.55;;
53915;SDS011;39827;49.652;18.770;2023-01-08T09:44:38;172.93;;;161.52;;
53915;SDS011;39827;49.652;18.770;2023-01-08T09:47:14;112.63;;;105.25;;
53915;SDS011;39827;49.652;18.770;2023-01-08T09:49:46;137.07;;;127.60;;
53915;SDS011;39827;49.652;18.770;2023-01-08T09:52:13;196.82;;;184.52;;
53915;SDS011;39827;49.652;18.770;2023-01-08T09:54:40;265.95;;;249.75;;
53915;SDS011;39827;49.652;18.770;2023-01-08T09:57:09;114.38;;;107.38;;
53915;SDS011;39827;49.652;18.770;2023-01-08T09:59:43;194.63;;;183.25;;
53915;SDS011;39827;49.652;18.770;2023-01-08T10:02:15;193.63;;;182.57;;
53915;SDS011;39827;49.652;18.770;2023-01-08T10:04:43;203.98;;;192.27;;
53915;SDS011;39827;49.652;18.770;2023-01-08T10:07:19;184.10;;;173.27;;
53915;SDS011;39827;49.652;18.770;2023-01-08T10:09:46;192.23;;;181.00;;
53915;SDS011;39827;49.652;18.770;2023-01-08T10:12:19;183.63;;;172.82;;
53915;SDS011;39827;49.652;18.770;2023-01-08T10:14:50;174.80;;;164.57;;
53915;SDS011;39827;49.652;18.770;2023-01-08T10:20:09;136.80;;;128.57;;
53915;SDS011;39827;49.652;18.770;2023-01-08T10:22:39;90.75;;;85.00;;
53915;SDS011;39827;49.652;18.770;2023-01-08T10:25:06;94.95;;;88.80;;
53915;SDS011;39827;49.652;18.770;2023-01-08T10:27:50;109.90;;;103.03;;
53915;SDS011;39827;49.652;18.770;2023-01-08T10:30:19;94.95;;;88.97;;
53915;SDS011;39827;49.652;18.770;2023-01-08T10:32:47;123.00;;;115.35;;
53915;SDS011;39827;49.652;18.770;2023-01-08T10:35:21;177.63;;;166.73;;
53915;SDS011;39827;49.652;18.770;2023-01-08T10:37:53;155.45;;;145.82;;
53915;SDS011;39827;49.652;18.770;2023-01-08T10:40:21;172.52;;;162.10;;
53915;SDS011;39827;49.652;18.770;2023-01-08T10:43:14;163.07;;;152.85;;
53915;SDS011;39827;49.652;18.770;2023-01-08T10:45:43;163.55;;;153.45;;
53915;SDS011;39827;49.652;18.770;2023-01-08T10:48:18;183.20;;;171.82;;
53915;SDS011;39827;49.652;18.770;2023-01-08T10:50:44;167.50;;;156.32;;
53915;SDS011;39827;49.652;18.770;2023-01-08T10:53:22;153.23;;;143.77;;
53915;SDS011;39827;49.652;18.770;2023-01-08T10:55:56;166.77;;;156.43;;
53915;SDS011;39827;49.652;18.770;2023-01-08T10:58:22;167.07;;;156.57;;
53915;SDS011;39827;49.652;18.770;2023-01-08T11:00:48;194.18;;;181.98;;
53915;SDS011;39827;49.652;18.770;2023-01-08T11:03:23;292.60;;;275.02;;
53915;SDS011;39827;49.652;18.770;2023-01-08T11:05:53;291.70;;;274.35;;
53915;SDS011;39827;49.652;18.770;2023-01-08T11:08:19;335.38;;;315.45;;
53915;SDS011;39827;49.652;18.770;2023-01-08T11:10:56;276.55;;;259.73;;
53915;SDS011;39827;49.652;18.770;2023-01-08T11:13:23;117.10;;;110.05;;
53915;SDS011;39827;49.652;18.770;2023-01-08T11:16:05;129.98;;;122.35;;
53915;SDS011;39827;49.652;18.770;2023-01-08T11:18:47;93.38;;;87.75;;
53915;SDS011;39827;49.652;18.770;2023-01-08T11:21:24;88.20;;;82.95;;
53915;SDS011;39827;49.652;18.770;2023-01-08T11:24:14;69.30;;;64.93;;
53915;SDS011;39827;49.652;18.770;2023-01-08T11:26:58;56.65;;;52.83;;
53915;SDS011;39827;49.652;18.770;2023-01-08T11:37:35;38.20;;;35.67;;
53915;SDS011;39827;49.652;18.770;2023-01-08T11:40:09;24.48;;;22.42;;
53915;SDS011;39827;49.652;18.770;2023-01-08T11:53:46;17.00;;;15.38;;
53915;SDS011;39827;49.652;18.770;2023-01-08T12:01:49;62.17;;;58.08;;
53915;SDS011;39827;49.652;18.770;2023-01-08T12:05:06;42.90;;;;;
53915;SDS011;39827;49.652;18.770;2023-01-08T12:10:14;42.20;;;39.25;;
53915;SDS011;39827;49.652;18.770;2023-01-08T12:28:51;28.40;;;26.27;;
53915;SDS011;39827;49.652;18.770;2023-01-08T12:34:11;79.90;;;74.78;;
53915;SDS011;39827;49.652;18.770;2023-01-08T12:36:44;140.02;;;131.45;;
53915;SDS011;39827;49.652;18.770;2023-01-08T12:39:14;124.53;;;116.90;;
53915;SDS011;39827;49.652;18.770;2023-01-08T12:41:42;124.25;;;116.60;;
53915;SDS011;39827;49.652;18.770;2023-01-08T12:44:10;86.90;;;81.30;;
53915;SDS011;39827;49.652;18.770;2023-01-08T12:46:37;97.05;;;90.85;;
53915;SDS011;39827;49.652;18.770;2023-01-08T12:49:09;94.57;;;88.20;;
53915;SDS011;39827;49.652;18.770;2023-01-08T12:51:51;116.37;;;108.97;;
53915;SDS011;39827;49.652;18.770;2023-01-08T12:54:22;169.15;;;156.57;;
53915;SDS011;39827;49.652;18.770;2023-01-08T13:00:08;96.45;;;90.05;;
53915;SDS011;39827;49.652;18.770;2023-01-08T13:07:59;119.22;;;111.78;;
53915;SDS011;39827;49.652;18.770;2023-01-08T13:10:49;109.85;;;102.80;;
53915;SDS011;39827;49.652;18.770;2023-01-08T13:15:51;113.95;;;106.93;;
53915;SDS011;39827;49.652;18.770;2023-01-08T13:18:18;151.18;;;141.82;;
53915;SDS011;39827;49.652;18.770;2023-01-08T13:20:57;190.40;;;179.10;;
53915;SDS011;39827;49.652;18.770;2023-01-08T13:23:26;185.63;;;174.50;;
53915;SDS011;39827;49.652;18.770;2023-01-08T13:25:54;163.30;;;153.45;;
53915;SDS011;39827;49.652;18.770;2023-01-08T13:30:49;170.27;;;159.70;;
53915;SDS011;39827;49.652;18.770;2023-01-08T13:33:22;152.95;;;143.65;;
53915;SDS011;39827;49.652;18.770;2023-01-08T13:39:00;168.90;;;158.20;;
53915;SDS011;39827;49.652;18.770;2023-01-08T13:44:26;173.02;;;162.10;;
53915;SDS011;39827;49.652;18.770;2023-01-08T13:47:25;193.63;;;180.48;;
53915;SDS011;39827;49.652;18.770;2023-01-08T13:49:52;166.23;;;155.75;;
53915;SDS011;39827;49.652;18.770;2023-01-08T13:55:17;140.80;;;132.00;;
53915;SDS011;39827;49.652;18.770;2023-01-08T13:58:07;147.60;;;138.43;;
53915;SDS011;39827;49.652;18.770;2023-01-08T14:00:46;134.25;;;125.30;;
53915;SDS011;39827;49.652;18.770;2023-01-08T14:06:05;119.43;;;110.82;;
53915;SDS011;39827;49.652;18.770;2023-01-08T14:08:37;110.03;;;101.65;;
53915;SDS011;39827;49.652;18.770;2023-01-08T14:11:13;97.05;;;90.15;;
53915;SDS011;39827;49.652;18.770;2023-01-08T14:13:39;99.35;;;92.63;;
53915;SDS011;39827;49.652;18.770;2023-01-08T14:16:09;98.57;;;91.97;;
53915;SDS011;39827;49.652;18.770;2023-01-08T14:18:41;85.07;;;79.38;;
53915;SDS011;39827;49.652;18.770;2023-01-08T14:21:07;76.75;;;71.47;;
53915;SDS011;39827;49.652;18.770;2023-01-08T14:23:36;83.90;;;78.53;;
53915;SDS011;39827;49.652;18.770;2023-01-08T14:26:05;88.65;;;81.95;;
53915;SDS011;39827;49.652;18.770;2023-01-08T14:28:33;75.95;;;70.00;;
53915;SDS011;39827;49.652;18.770;2023-01-08T14:30:58;72.15;;;66.70;;
53915;SDS011;39827;49.652;18.770;2023-01-08T14:36:01;64.82;;;60.17;;
53915;SDS011;39827;49.652;18.770;2023-01-08T14:38:30;71.28;;;65.97;;
53915;SDS011;39827;49.652;18.770;2023-01-08T14:40:57;60.55;;;55.38;;
53915;SDS011;39827;49.652;18.770;2023-01-08T14:43:34;62.15;;;56.90;;
53915;SDS011;39827;49.652;18.770;2023-01-08T14:46:09;62.70;;;56.90;;
53915;SDS011;39827;49.652;18.770;2023-01-08T14:48:46;77.53;;;70.85;;
53915;SDS011;39827;49.652;18.770;2023-01-08T14:51:14;81.38;;;74.45;;
53915;SDS011;39827;49.652;18.770;2023-01-08T14:53:46;103.25;;;95.63;;
53915;SDS011;39827;49.652;18.770;2023-01-08T14:56:26;82.03;;;75.97;;
53915;SDS011;39827;49.652;18.770;2023-01-08T14:58:53;78.18;;;72.20;;
53915;SDS011;39827;49.652;18.770;2023-01-08T15:01:26;97.90;;;80.88;;
53915;SDS011;39827;49.652;18.770;2023-01-08T15:04:03;94.65;;;85.80;;
53915;SDS011;39827;49.652;18.770;2023-01-08T15:06:41;85.10;;;76.72;;
53915;SDS011;39827;49.652;18.770;2023-01-08T15:09:19;101.47;;;93.20;;
53915;SDS011;39827;49.652;18.770;2023-01-08T15:11:56;96.88;;;89.22;;
53915;SDS011;39827;49.652;18.770;2023-01-08T15:14:26;101.50;;;92.82;;
53915;SDS011;39827;49.652;18.770;2023-01-08T15:16:53;97.72;;;89.70;;
53915;SDS011;39827;49.652;18.770;2023-01-08T15:19:28;96.70;;;89.28;;
53915;SDS011;39827;49.652;18.770;2023-01-08T15:21:58;94.70;;;85.30;;
53915;SDS011;39827;49.652;18.770;2023-01-08T15:24:35;98.07;;;91.07;;
53915;SDS011;39827;49.652;18.770;2023-01-08T15:27:05;115.30;;;106.95;;
53915;SDS011;39827;49.652;18.770;2023-01-08T15:29:36;116.10;;;107.05;;
53915;SDS011;39827;49.652;18.770;2023-01-08T15:32:07;113.53;;;104.50;;
53915;SDS011;39827;49.652;18.770;2023-01-08T15:34:36;103.70;;;95.85;;
53915;SDS011;39827;49.652;18.770;2023-01-08T15:37:02;116.68;;;107.20;;
53915;SDS011;39827;49.652;18.770;2023-01-08T15:39:27;100.28;;;92.38;;
53915;SDS011;39827;49.652;18.770;2023-01-08T15:41:52;107.88;;;100.40;;
53915;SDS011;39827;49.652;18.770;2023-01-08T15:44:36;98.22;;;91.13;;
53915;SDS011;39827;49.652;18.770;2023-01-08T15:47:02;111.03;;;102.75;;